createdAt,value
2023-05-01T00:00:15.021Z,0.00
2023-05-01T00:01:14.838Z,0.00
2023-05-01T00:02:15.007Z,0.00
2023-05-01T00:03:14.099Z,0.00
2023-05-01T00:04:15.326Z,0.00
2023-05-01T00:05:15.349Z,0.00
2023-05-01T00:06:14.903Z,0.00
2023-05-01T00:07:14.811Z,0.00
2023-05-01T00:08:14.754Z,0.00
2023-05-01T00:09:15.322Z,0.00
2023-05-01T00:10:14.789Z,0.00
2023-05-01T00:11:15.085Z,0.00
2023-05-01T00:12:14.390Z,0.00
2023-05-01T00:13:14.868Z,0.00
2023-05-01T00:14:14.576Z,0.00
2023-05-01T00:15:14.705Z,0.00
2023-05-01T00:16:15.135Z,0.00
2023-05-01T00:17:14.616Z,0.00
2023-05-01T00:18:15.655Z,0.00
2023-05-01T00:19:14.619Z,0.00
2023-05-01T00:20:15.061Z,0.00
2023-05-01T00:21:14.945Z,0.00
2023-05-01T00:22:14.816Z,0.00
2023-05-01T00:23:14.497Z,0.00
2023-05-01T00:24:16.528Z,0.00
2023-05-01T00:25:14.804Z,0.00
2023-05-01T00:26:13.731Z,0.00
2023-05-01T00:27:14.961Z,0.00
2023-05-01T00:28:14.319Z,0.00
2023-05-01T00:29:14.420Z,0.00
2023-05-01T00:30:14.906Z,0.00
2023-05-01T00:31:14.323Z,0.00
2023-05-01T00:32:14.951Z,0.00
2023-05-01T00:33:14.652Z,0.00
2023-05-01T00:34:14.917Z,0.00
2023-05-01T00:35:14.026Z,0.00
2023-05-01T00:36:14.009Z,0.00
2023-05-01T00:37:14.040Z,0.00
2023-05-01T00:38:45.628Z,0.00
2023-05-01T00:39:13.945Z,0.00
2023-05-01T00:40:14.073Z,0.00
2023-05-01T00:41:14.511Z,0.00
2023-05-01T00:42:14.792Z,0.00
2023-05-01T00:43:15.006Z,0.00
2023-05-01T00:44:15.024Z,0.00
2023-05-01T00:45:14.338Z,0.00
2023-05-01T00:46:15.088Z,0.00
2023-05-01T00:47:14.608Z,0.00
2023-05-01T00:48:14.934Z,0.00
2023-05-01T00:49:14.906Z,0.00
2023-05-01T00:50:14.459Z,0.00
2023-05-01T00:51:14.905Z,0.00
2023-05-01T00:52:14.808Z,0.00
2023-05-01T00:53:16.962Z,0.00
2023-05-01T00:54:14.432Z,0.00
2023-05-01T00:55:14.726Z,0.00
2023-05-01T00:56:17.203Z,0.00
2023-05-01T00:57:14.637Z,0.00
2023-05-01T00:58:14.738Z,0.00
2023-05-01T00:59:15.262Z,0.00
2023-05-01T01:00:14.622Z,0.00
2023-05-01T01:01:15.049Z,0.00
2023-05-01T01:02:14.224Z,0.00
2023-05-01T01:03:14.715Z,0.00
2023-05-01T01:04:15.729Z,0.00
2023-05-01T01:05:15.076Z,0.00
2023-05-01T01:06:14.607Z,0.00
2023-05-01T01:07:16.058Z,0.00
2023-05-01T01:08:15.384Z,0.00
2023-05-01T01:09:16.536Z,0.00
2023-05-01T01:10:15.164Z,0.00
2023-05-01T01:11:14.776Z,0.00
2023-05-01T01:12:15.109Z,0.00
2023-05-01T01:13:14.439Z,0.00
2023-05-01T01:14:14.867Z,0.00
2023-05-01T01:15:14.790Z,0.00
2023-05-01T01:16:15.278Z,0.00
2023-05-01T01:17:14.924Z,0.00
2023-05-01T01:18:14.551Z,0.00
2023-05-01T01:19:15.090Z,0.00
2023-05-01T01:20:14.405Z,0.00
2023-05-01T01:21:14.679Z,0.00
2023-05-01T01:22:14.994Z,0.00
2023-05-01T01:23:14.352Z,0.00
2023-05-01T01:24:14.881Z,0.00
2023-05-01T01:25:15.426Z,0.00
2023-05-01T01:26:15.071Z,0.00
2023-05-01T01:27:14.325Z,0.00
2023-05-01T01:28:14.689Z,0.00
2023-05-01T01:29:15.487Z,0.00
2023-05-01T01:30:15.650Z,0.00
2023-05-01T01:31:17.441Z,0.00
2023-05-01T01:32:14.580Z,0.00
2023-05-01T01:33:15.157Z,0.00
2023-05-01T01:34:14.754Z,0.00
2023-05-01T01:35:15.547Z,0.00
2023-05-01T01:36:16.428Z,0.00
2023-05-01T01:37:14.809Z,0.00
2023-05-01T01:38:15.693Z,0.00
2023-05-01T01:39:15.411Z,0.00
2023-05-01T01:40:15.140Z,0.00
2023-05-01T01:41:14.634Z,0.00
2023-05-01T01:42:15.146Z,0.00
2023-05-01T01:43:16.700Z,0.00
2023-05-01T01:44:15.921Z,0.00
2023-05-01T01:45:14.174Z,0.00
2023-05-01T01:46:14.343Z,0.00
2023-05-01T01:47:14.775Z,0.00
2023-05-01T01:48:15.215Z,0.00
2023-05-01T01:49:14.554Z,0.00
2023-05-01T01:50:15.418Z,0.00
2023-05-01T01:51:15.237Z,0.00
2023-05-01T01:52:14.488Z,0.00
2023-05-01T01:53:15.018Z,0.00
2023-05-01T01:54:15.676Z,0.00
2023-05-01T01:55:15.462Z,0.00
2023-05-01T01:56:14.728Z,0.00
2023-05-01T01:57:15.080Z,0.00
2023-05-01T01:58:14.126Z,0.00
2023-05-01T01:59:14.554Z,0.00
2023-05-01T02:00:15.049Z,0.00
2023-05-01T02:01:15.007Z,0.00
2023-05-01T02:02:14.453Z,0.00
2023-05-01T02:03:15.357Z,0.00
2023-05-01T02:04:15.088Z,0.00
2023-05-01T02:05:14.888Z,0.00
2023-05-01T02:06:14.385Z,0.00
2023-05-01T02:07:16.223Z,0.00
2023-05-01T02:08:14.646Z,0.00
2023-05-01T02:09:14.957Z,0.00
2023-05-01T02:10:14.591Z,0.00
2023-05-01T02:11:14.805Z,0.00
2023-05-01T02:12:16.787Z,0.00
2023-05-01T02:13:15.301Z,0.00
2023-05-01T02:14:14.341Z,0.00
2023-05-01T02:15:14.448Z,0.00
2023-05-01T02:16:14.912Z,0.00
2023-05-01T02:17:14.772Z,0.00
2023-05-01T02:18:15.077Z,0.00
2023-05-01T02:19:14.597Z,0.00
2023-05-01T02:20:14.960Z,0.00
2023-05-01T02:21:14.698Z,0.00
2023-05-01T02:22:14.958Z,0.00
2023-05-01T02:23:14.548Z,0.00
2023-05-01T02:24:14.921Z,0.00
2023-05-01T02:25:14.403Z,0.00
2023-05-01T02:26:14.792Z,0.00
2023-05-01T02:27:15.441Z,0.00
2023-05-01T02:28:14.574Z,0.00
2023-05-01T02:29:14.729Z,0.00
2023-05-01T02:30:14.948Z,0.00
2023-05-01T02:31:13.825Z,0.00
2023-05-01T02:32:15.786Z,0.00
2023-05-01T02:33:15.352Z,0.00
2023-05-01T02:34:14.460Z,0.00
2023-05-01T02:35:14.766Z,0.00
2023-05-01T02:36:15.513Z,0.00
2023-05-01T02:37:15.256Z,0.00
2023-05-01T02:38:14.483Z,0.00
2023-05-01T02:39:14.943Z,0.00
2023-05-01T02:40:14.313Z,0.00
2023-05-01T02:41:14.403Z,0.00
2023-05-01T02:42:14.580Z,0.00
2023-05-01T02:43:14.928Z,0.00
2023-05-01T02:44:14.413Z,0.00
2023-05-01T02:45:15.167Z,0.00
2023-05-01T02:46:14.440Z,0.00
2023-05-01T02:47:15.325Z,0.00
2023-05-01T02:48:14.639Z,0.00
2023-05-01T02:49:14.927Z,0.00
2023-05-01T02:50:13.926Z,0.00
2023-05-01T02:51:14.153Z,0.00
2023-05-01T02:52:16.125Z,0.00
2023-05-01T02:53:14.812Z,0.00
2023-05-01T02:54:14.888Z,0.00
2023-05-01T02:55:14.083Z,0.00
2023-05-01T02:56:14.412Z,0.00
2023-05-01T02:57:14.742Z,0.00
2023-05-01T02:58:15.098Z,0.00
2023-05-01T02:59:14.309Z,0.00
2023-05-01T03:00:14.443Z,0.00
2023-05-01T03:01:15.509Z,0.00
2023-05-01T03:02:15.309Z,0.00
2023-05-01T03:03:15.041Z,0.00
2023-05-01T03:04:14.434Z,0.00
2023-05-01T03:05:15.196Z,0.00
2023-05-01T03:06:14.587Z,0.00
2023-05-01T03:07:15.152Z,0.00
2023-05-01T03:08:14.286Z,0.00
2023-05-01T03:09:14.810Z,0.00
2023-05-01T03:10:15.767Z,0.00
2023-05-01T03:11:14.981Z,0.00
2023-05-01T03:12:14.103Z,0.00
2023-05-01T03:13:14.360Z,0.00
2023-05-01T03:14:14.539Z,0.00
2023-05-01T03:15:15.024Z,0.00
2023-05-01T03:16:14.713Z,0.00
2023-05-01T03:17:15.154Z,0.00
2023-05-01T03:18:14.665Z,0.00
2023-05-01T03:19:13.649Z,0.00
2023-05-01T03:20:13.792Z,0.00
2023-05-01T03:21:14.063Z,0.00
2023-05-01T03:22:13.003Z,0.00
2023-05-01T03:23:13.185Z,0.00
2023-05-01T03:24:13.153Z,0.77
2023-05-01T03:25:12.993Z,0.77
2023-05-01T03:26:12.936Z,0.77
2023-05-01T03:27:12.990Z,0.77
2023-05-01T03:28:13.357Z,1.53
2023-05-01T03:29:13.515Z,1.53
2023-05-01T03:30:13.378Z,1.53
2023-05-01T03:31:13.384Z,2.29
2023-05-01T03:32:13.375Z,2.29
2023-05-01T03:33:13.606Z,3.06
2023-05-01T03:34:13.534Z,3.82
2023-05-01T03:35:13.420Z,3.82
2023-05-01T03:36:13.616Z,4.59
2023-05-01T03:37:13.996Z,5.35
2023-05-01T03:38:13.307Z,6.88
2023-05-01T03:39:14.066Z,7.65
2023-05-01T03:40:13.007Z,9.18
2023-05-01T03:41:12.953Z,10.71
2023-05-01T03:42:12.988Z,12.24
2023-05-01T03:43:13.101Z,13.77
2023-05-01T03:44:13.043Z,16.83
2023-05-01T03:45:13.013Z,19.89
2023-05-01T03:46:13.307Z,21.42
2023-05-01T03:47:13.651Z,24.48
2023-05-01T03:48:13.793Z,27.54
2023-05-01T03:49:13.804Z,33.66
2023-05-01T03:50:14.214Z,39.78
2023-05-01T03:51:13.108Z,45.90
2023-05-01T03:52:12.856Z,48.96
2023-05-01T03:53:13.381Z,55.08
2023-05-01T03:54:13.425Z,67.32
2023-05-01T03:55:13.514Z,73.44
2023-05-01T03:56:13.442Z,79.56
2023-05-01T03:57:13.346Z,91.80
2023-05-01T03:58:13.398Z,97.92
2023-05-01T03:59:13.464Z,110.16
2023-05-01T04:00:13.455Z,122.40
2023-05-01T04:01:13.435Z,122.40
2023-05-01T04:02:13.326Z,134.64
2023-05-01T04:03:13.918Z,146.88
2023-05-01T04:04:13.300Z,171.36
2023-05-01T04:05:13.494Z,171.36
2023-05-01T04:06:13.887Z,183.60
2023-05-01T04:07:13.114Z,195.84
2023-05-01T04:08:12.988Z,220.32
2023-05-01T04:09:13.122Z,244.80
2023-05-01T04:10:13.076Z,269.28
2023-05-01T04:11:13.081Z,293.76
2023-05-01T04:12:12.972Z,293.76
2023-05-01T04:13:12.665Z,318.24
2023-05-01T04:14:13.824Z,342.72
2023-05-01T04:15:15.501Z,367.20
2023-05-01T04:16:14.097Z,391.68
2023-05-01T04:17:13.322Z,391.68
2023-05-01T04:18:13.468Z,391.68
2023-05-01T04:19:13.625Z,440.64
2023-05-01T04:20:13.683Z,440.64
2023-05-01T04:21:13.715Z,489.60
2023-05-01T04:22:13.954Z,538.56
2023-05-01T04:23:13.084Z,538.56
2023-05-01T04:24:12.968Z,587.52
2023-05-01T04:25:13.046Z,587.52
2023-05-01T04:26:13.128Z,636.48
2023-05-01T04:27:13.138Z,685.44
2023-05-01T04:28:13.206Z,734.40
2023-05-01T04:29:13.715Z,734.40
2023-05-01T04:30:14.474Z,783.36
2023-05-01T04:31:13.651Z,783.36
2023-05-01T04:32:13.848Z,881.28
2023-05-01T04:33:14.007Z,881.28
2023-05-01T04:34:13.289Z,979.20
2023-05-01T04:35:13.682Z,979.20
2023-05-01T04:36:13.838Z,1175.04
2023-05-01T04:37:14.279Z,1175.04
2023-05-01T04:38:13.364Z,1272.96
2023-05-01T04:39:13.376Z,1370.88
2023-05-01T04:40:13.660Z,1370.88
2023-05-01T04:41:13.773Z,1370.88
2023-05-01T04:42:13.719Z,1468.80
2023-05-01T04:43:13.808Z,1566.72
2023-05-01T04:44:13.709Z,1566.72
2023-05-01T04:45:13.857Z,1566.72
2023-05-01T04:46:13.924Z,1566.72
2023-05-01T04:47:12.989Z,1566.72
2023-05-01T04:48:13.432Z,1762.56
2023-05-01T04:49:18.535Z,1762.56
2023-05-01T04:50:13.862Z,1762.56
2023-05-01T04:51:13.838Z,1958.40
2023-05-01T04:52:13.856Z,1958.40
2023-05-01T04:53:13.904Z,1958.40
2023-05-01T04:54:13.089Z,2154.24
2023-05-01T04:55:13.109Z,2154.24
2023-05-01T04:56:13.209Z,2154.24
2023-05-01T04:57:13.249Z,2154.24
2023-05-01T04:58:13.174Z,2154.24
2023-05-01T04:59:13.309Z,2350.08
2023-05-01T05:00:13.660Z,2350.08
2023-05-01T05:01:13.704Z,2545.92
2023-05-01T05:02:13.987Z,2545.92
2023-05-01T05:03:13.119Z,2545.92
2023-05-01T05:04:13.362Z,2545.92
2023-05-01T05:05:13.576Z,2741.76
2023-05-01T05:06:13.612Z,2741.76
2023-05-01T05:07:13.748Z,2741.76
2023-05-01T05:08:13.713Z,2741.76
2023-05-01T05:09:13.866Z,2937.60
2023-05-01T05:10:13.749Z,2937.60
2023-05-01T05:11:13.714Z,2741.76
2023-05-01T05:12:13.776Z,2937.60
2023-05-01T05:13:13.954Z,2937.60
2023-05-01T05:14:13.458Z,3133.44
2023-05-01T05:15:13.583Z,3133.44
2023-05-01T05:16:13.652Z,3133.44
2023-05-01T05:17:13.820Z,3133.44
2023-05-01T05:18:13.855Z,3133.44
2023-05-01T05:19:14.209Z,3133.44
2023-05-01T05:20:13.473Z,3133.44
2023-05-01T05:21:13.410Z,3525.12
2023-05-01T05:22:13.433Z,3525.12
2023-05-01T05:23:13.580Z,3525.12
2023-05-01T05:24:13.758Z,3525.12
2023-05-01T05:25:13.989Z,3916.80
2023-05-01T05:26:13.199Z,3916.80
2023-05-01T05:27:13.148Z,3916.80
2023-05-01T05:28:13.192Z,4308.48
2023-05-01T05:29:13.221Z,4308.48
2023-05-01T05:30:13.313Z,4308.48
2023-05-01T05:31:13.442Z,4308.48
2023-05-01T05:32:13.423Z,4700.16
2023-05-01T05:33:14.059Z,4700.16
2023-05-01T05:34:13.458Z,4700.16
2023-05-01T05:35:13.897Z,4700.16
2023-05-01T05:36:13.402Z,5091.84
2023-05-01T05:37:13.728Z,5091.84
2023-05-01T05:38:13.763Z,5091.84
2023-05-01T05:39:13.681Z,5091.84
2023-05-01T05:40:14.002Z,5091.84
2023-05-01T05:41:13.235Z,5483.52
2023-05-01T05:42:13.409Z,5483.52
2023-05-01T05:43:13.309Z,5483.52
2023-05-01T05:44:13.227Z,5483.52
2023-05-01T05:45:13.152Z,5483.52
2023-05-01T05:46:13.408Z,5483.52
2023-05-01T05:47:13.549Z,5483.52
2023-05-01T05:48:13.465Z,5483.52
2023-05-01T05:49:13.564Z,5091.84
2023-05-01T05:50:13.609Z,5091.84
2023-05-01T05:51:13.600Z,5091.84
2023-05-01T05:52:13.689Z,5091.84
2023-05-01T05:53:13.994Z,5091.84
2023-05-01T05:54:12.997Z,5091.84
2023-05-01T05:55:12.924Z,5091.84
2023-05-01T05:56:13.059Z,5483.52
2023-05-01T05:57:13.190Z,5483.52
2023-05-01T05:58:13.227Z,5483.52
2023-05-01T05:59:14.460Z,5483.52
2023-05-01T06:00:13.368Z,5483.52
2023-05-01T06:01:13.337Z,5483.52
2023-05-01T06:02:16.404Z,5483.52
2023-05-01T06:03:13.760Z,5875.20
2023-05-01T06:04:14.143Z,5875.20
2023-05-01T06:05:45.785Z,5875.20
2023-05-01T06:06:14.447Z,5875.20
2023-05-01T06:07:13.594Z,6266.88
2023-05-01T06:08:13.499Z,6266.88
2023-05-01T06:09:13.430Z,6266.88
2023-05-01T06:10:13.555Z,6266.88
2023-05-01T06:11:13.863Z,6266.88
2023-05-01T06:12:14.022Z,7050.24
2023-05-01T06:13:14.485Z,7050.24
2023-05-01T06:14:14.224Z,7050.24
2023-05-01T06:15:13.878Z,7050.24
2023-05-01T06:16:13.764Z,7050.24
2023-05-01T06:17:14.009Z,7050.24
2023-05-01T06:18:13.715Z,7833.60
2023-05-01T06:19:13.785Z,7833.60
2023-05-01T06:20:14.064Z,7833.60
2023-05-01T06:21:13.139Z,7833.60
2023-05-01T06:22:13.185Z,8616.96
2023-05-01T06:23:13.329Z,8616.96
2023-05-01T06:24:13.263Z,8616.96
2023-05-01T06:25:13.431Z,8616.96
2023-05-01T06:26:13.709Z,8616.96
2023-05-01T06:27:13.774Z,8616.96
2023-05-01T06:28:13.936Z,9400.32
2023-05-01T06:29:12.916Z,8616.96
2023-05-01T06:30:12.956Z,9400.32
2023-05-01T06:31:13.233Z,9400.32
2023-05-01T06:32:28.209Z,9400.32
2023-05-01T06:33:13.567Z,9400.32
2023-05-01T06:34:14.094Z,9400.32
2023-05-01T06:35:13.275Z,9400.32
2023-05-01T06:36:13.663Z,9400.32
2023-05-01T06:37:13.637Z,9400.32
2023-05-01T06:38:13.724Z,9400.32
2023-05-01T06:39:14.105Z,9400.32
2023-05-01T06:40:13.264Z,10183.68
2023-05-01T06:41:13.485Z,9400.32
2023-05-01T06:42:13.645Z,10183.68
2023-05-01T06:43:13.689Z,9400.32
2023-05-01T06:44:13.791Z,10183.68
2023-05-01T06:45:13.728Z,10183.68
2023-05-01T06:46:13.961Z,10183.68
2023-05-01T06:47:13.079Z,10183.68
2023-05-01T06:48:13.244Z,10183.68
2023-05-01T06:49:13.416Z,10183.68
2023-05-01T06:50:13.526Z,10183.68
2023-05-01T06:51:13.435Z,10183.68
2023-05-01T06:52:13.663Z,10183.68
2023-05-01T06:53:13.886Z,10967.04
2023-05-01T06:54:12.964Z,10967.04
2023-05-01T06:55:13.069Z,10967.04
2023-05-01T06:56:13.102Z,10967.04
2023-05-01T06:57:13.091Z,10967.04
2023-05-01T06:58:23.574Z,10967.04
2023-05-01T06:59:13.521Z,10967.04
2023-05-01T07:00:13.691Z,11750.40
2023-05-01T07:01:13.767Z,11750.40
2023-05-01T07:02:19.297Z,11750.40
2023-05-01T07:03:13.774Z,11750.40
2023-05-01T07:05:13.063Z,11750.40
2023-05-01T07:06:14.049Z,12533.76
2023-05-01T07:07:13.186Z,11750.40
2023-05-01T07:08:26.300Z,12533.76
2023-05-01T07:09:14.848Z,12533.76
2023-05-01T07:10:18.713Z,12533.76
2023-05-01T07:11:14.044Z,12533.76
2023-05-01T07:12:13.130Z,12533.76
2023-05-01T07:13:13.321Z,12533.76
2023-05-01T07:14:34.796Z,12533.76
2023-05-01T07:15:13.876Z,12533.76
2023-05-01T07:16:14.066Z,11750.40
2023-05-01T07:17:13.217Z,12533.76
2023-05-01T07:18:13.474Z,12533.76
2023-05-01T07:19:13.822Z,12533.76
2023-05-01T07:20:13.989Z,12533.76
2023-05-01T07:21:13.384Z,12533.76
2023-05-01T07:22:13.501Z,12533.76
2023-05-01T07:23:13.555Z,12533.76
2023-05-01T07:24:19.506Z,14100.48
2023-05-01T07:25:13.735Z,12533.76
2023-05-01T07:26:14.184Z,14100.48
2023-05-01T07:27:13.298Z,14100.48
2023-05-01T07:28:13.372Z,14100.48
2023-05-01T07:29:13.443Z,14100.48
2023-05-01T07:30:13.674Z,14100.48
2023-05-01T07:31:14.150Z,14100.48
2023-05-01T07:32:13.627Z,14100.48
2023-05-01T07:33:13.859Z,14100.48
2023-05-01T07:34:12.807Z,14100.48
2023-05-01T07:35:14.560Z,14100.48
2023-05-01T07:36:13.729Z,14100.48
2023-05-01T07:37:13.987Z,14100.48
2023-05-01T07:38:36.441Z,14100.48
2023-05-01T07:39:13.824Z,14100.48
2023-05-01T07:40:13.521Z,14100.48
2023-05-01T07:41:13.958Z,14100.48
2023-05-01T07:42:13.388Z,14100.48
2023-05-01T07:43:13.512Z,14100.48
2023-05-01T07:44:19.114Z,14100.48
2023-05-01T07:45:13.171Z,14100.48
2023-05-01T07:47:16.164Z,15667.20
2023-05-01T07:48:13.379Z,14100.48
2023-05-01T07:49:13.584Z,15667.20
2023-05-01T07:50:14.987Z,15667.20
2023-05-01T07:51:13.247Z,15667.20
2023-05-01T07:52:13.405Z,15667.20
2023-05-01T07:53:13.810Z,15667.20
2023-05-01T07:54:14.022Z,14100.48
2023-05-01T07:55:13.140Z,15667.20
2023-05-01T07:56:15.632Z,15667.20
2023-05-01T07:57:13.997Z,14100.48
2023-05-01T07:58:13.150Z,14100.48
2023-05-01T07:59:13.038Z,15667.20
2023-05-01T08:00:13.037Z,15667.20
2023-05-01T08:01:18.566Z,14100.48
2023-05-01T08:02:14.102Z,14100.48
2023-05-01T08:03:13.568Z,15667.20
2023-05-01T08:04:13.664Z,15667.20
2023-05-01T08:05:13.813Z,14100.48
2023-05-01T08:06:13.733Z,15667.20
2023-05-01T08:07:14.306Z,15667.20
2023-05-01T08:08:14.537Z,15667.20
2023-05-01T08:09:18.785Z,15667.20
2023-05-01T08:10:13.737Z,14100.48
2023-05-01T08:11:14.039Z,15667.20
2023-05-01T08:12:13.342Z,15667.20
2023-05-01T08:13:13.899Z,15667.20
2023-05-01T08:14:13.488Z,15667.20
2023-05-01T08:15:13.597Z,17233.92
2023-05-01T08:16:13.819Z,17233.92
2023-05-01T08:17:13.090Z,17233.92
2023-05-01T08:18:13.329Z,17233.92
2023-05-01T08:19:13.645Z,17233.92
2023-05-01T08:20:33.936Z,17233.92
2023-05-01T08:21:13.063Z,17233.92
2023-05-01T08:22:13.036Z,18800.64
2023-05-01T08:23:13.217Z,18800.64
2023-05-01T08:24:13.228Z,17233.92
2023-05-01T08:25:13.211Z,17233.92
2023-05-01T08:27:30.322Z,17233.92
2023-05-01T08:28:13.640Z,17233.92
2023-05-01T08:28:46.415Z,15667.20
2023-05-01T08:29:13.466Z,17233.92
2023-05-01T08:30:25.673Z,17233.92
2023-05-01T08:31:13.899Z,17233.92
2023-05-01T08:32:13.178Z,17233.92
2023-05-01T08:33:13.385Z,18800.64
2023-05-01T08:34:13.776Z,18800.64
2023-05-01T08:35:14.004Z,18800.64
2023-05-01T08:36:13.301Z,17233.92
2023-05-01T08:37:13.648Z,17233.92
2023-05-01T08:38:13.817Z,17233.92
2023-05-01T08:39:13.886Z,17233.92
2023-05-01T08:40:12.932Z,15667.20
2023-05-01T08:41:12.950Z,17233.92
2023-05-01T08:42:13.118Z,17233.92
2023-05-01T08:43:13.155Z,17233.92
2023-05-01T08:44:13.059Z,17233.92
2023-05-01T08:45:13.115Z,17233.92
2023-05-01T08:46:18.379Z,17233.92
2023-05-01T08:47:13.765Z,17233.92
2023-05-01T08:48:19.055Z,18800.64
2023-05-01T08:49:13.062Z,18800.64
2023-05-01T08:50:13.063Z,18800.64
2023-05-01T08:51:13.069Z,18800.64
2023-05-01T08:52:13.274Z,18800.64
2023-05-01T08:53:13.550Z,18800.64
2023-05-01T08:54:49.176Z,18800.64
2023-05-01T08:55:13.186Z,18800.64
2023-05-01T08:56:13.443Z,20367.36
2023-05-01T08:57:13.985Z,18800.64
2023-05-01T08:58:13.012Z,18800.64
2023-05-01T08:59:12.988Z,20367.36
2023-05-01T09:00:12.923Z,21934.08
2023-05-01T09:01:13.192Z,21934.08
2023-05-01T09:02:13.416Z,25067.52
2023-05-01T09:03:13.812Z,28200.96
2023-05-01T09:04:13.748Z,31334.40
2023-05-01T09:05:13.760Z,21934.08
2023-05-01T09:06:13.979Z,23500.80
2023-05-01T09:07:13.337Z,28200.96
2023-05-01T09:08:13.267Z,34467.84
2023-05-01T09:09:13.262Z,25067.52
2023-05-01T09:10:13.413Z,25067.52
2023-05-01T09:11:13.449Z,28200.96
2023-05-01T09:12:13.441Z,25067.52
2023-05-01T09:13:13.441Z,28200.96
2023-05-01T09:14:13.538Z,34467.84
2023-05-01T09:15:13.635Z,37601.28
2023-05-01T09:16:13.953Z,40734.72
2023-05-01T09:17:13.458Z,31334.40
2023-05-01T09:18:13.663Z,31334.40
2023-05-01T09:19:13.747Z,28200.96
2023-05-01T09:20:13.898Z,31334.40
2023-05-01T09:21:12.945Z,34467.84
2023-05-01T09:22:13.182Z,31334.40
2023-05-01T09:23:13.618Z,40734.72
2023-05-01T09:24:13.578Z,31334.40
2023-05-01T09:25:13.575Z,31334.40
2023-05-01T09:26:13.742Z,31334.40
2023-05-01T09:27:13.668Z,28200.96
2023-05-01T09:28:13.845Z,28200.96
2023-05-01T09:29:14.126Z,28200.96
2023-05-01T09:30:13.038Z,31334.40
2023-05-01T09:31:12.956Z,25067.52
2023-05-01T09:32:13.159Z,25067.52
2023-05-01T09:33:13.643Z,25067.52
2023-05-01T09:34:13.681Z,25067.52
2023-05-01T09:35:13.653Z,31334.40
2023-05-01T09:36:22.124Z,28200.96
2023-05-01T09:37:13.516Z,28200.96
2023-05-01T09:38:13.632Z,28200.96
2023-05-01T09:39:13.619Z,31334.40
2023-05-01T09:40:13.729Z,31334.40
2023-05-01T09:41:13.625Z,40734.72
2023-05-01T09:42:13.689Z,43868.16
2023-05-01T09:43:24.558Z,31334.40
2023-05-01T09:44:13.897Z,34467.84
2023-05-01T09:45:14.109Z,34467.84
2023-05-01T09:46:13.172Z,28200.96
2023-05-01T09:47:13.311Z,28200.96
2023-05-01T09:48:13.306Z,25067.52
2023-05-01T09:49:13.286Z,21934.08
2023-05-01T09:50:13.334Z,20367.36
2023-05-01T09:51:13.254Z,21934.08
2023-05-01T09:52:13.416Z,25067.52
2023-05-01T09:53:13.431Z,28200.96
2023-05-01T09:54:13.437Z,28200.96
2023-05-01T09:55:13.526Z,40734.72
2023-05-01T09:56:13.412Z,47001.60
2023-05-01T09:57:13.626Z,47001.60
2023-05-01T09:58:23.758Z,43868.16
2023-05-01T09:59:14.293Z,43868.16
2023-05-01T10:00:13.495Z,34467.84
2023-05-01T10:01:23.640Z,43868.16
2023-05-01T10:02:13.672Z,43868.16
2023-05-01T10:03:13.951Z,43868.16
2023-05-01T10:04:13.199Z,43868.16
2023-05-01T10:05:13.762Z,34467.84
2023-05-01T10:06:15.357Z,34467.84
2023-05-01T10:07:13.461Z,37601.28
2023-05-01T10:08:13.541Z,34467.84
2023-05-01T10:09:13.684Z,40734.72
2023-05-01T10:10:13.861Z,37601.28
2023-05-01T10:11:13.960Z,37601.28
2023-05-01T10:12:13.089Z,40734.72
2023-05-01T10:13:13.251Z,34467.84
2023-05-01T10:14:13.258Z,34467.84
2023-05-01T10:15:23.785Z,37601.28
2023-05-01T10:16:13.244Z,40734.72
2023-05-01T10:17:13.181Z,34467.84
2023-05-01T10:18:13.268Z,28200.96
2023-05-01T10:19:13.339Z,34467.84
2023-05-01T10:20:13.392Z,23500.80
2023-05-01T10:21:13.524Z,17233.92
2023-05-01T10:22:13.971Z,14100.48
2023-05-01T10:23:13.458Z,14100.48
2023-05-01T10:24:13.971Z,14100.48
2023-05-01T10:25:13.204Z,14100.48
2023-05-01T10:26:13.309Z,14100.48
2023-05-01T10:27:13.568Z,15667.20
2023-05-01T10:28:13.518Z,15667.20
2023-05-01T10:29:13.500Z,15667.20
2023-05-01T10:30:13.606Z,14100.48
2023-05-01T10:31:13.695Z,15667.20
2023-05-01T10:32:13.938Z,15667.20
2023-05-01T10:33:13.221Z,17233.92
2023-05-01T10:34:13.285Z,18800.64
2023-05-01T10:35:13.555Z,20367.36
2023-05-01T10:36:14.061Z,20367.36
2023-05-01T10:37:13.105Z,18800.64
2023-05-01T10:38:13.226Z,18800.64
2023-05-01T10:39:13.200Z,20367.36
2023-05-01T10:40:13.262Z,20367.36
2023-05-01T10:41:13.613Z,25067.52
2023-05-01T10:42:13.770Z,23500.80
2023-05-01T10:43:13.819Z,34467.84
2023-05-01T10:44:14.041Z,28200.96
2023-05-01T10:45:13.385Z,47001.60
2023-05-01T10:46:13.767Z,34467.84
2023-05-01T10:47:13.720Z,40734.72
2023-05-01T10:48:13.825Z,47001.60
2023-05-01T10:49:13.868Z,50135.04
2023-05-01T10:50:13.884Z,50135.04
2023-05-01T10:51:12.812Z,50135.04
2023-05-01T10:52:18.945Z,47001.60
2023-05-01T10:53:13.019Z,47001.60
2023-05-01T10:54:13.114Z,47001.60
2023-05-01T10:55:13.428Z,43868.16
2023-05-01T10:56:13.601Z,40734.72
2023-05-01T10:57:13.562Z,34467.84
2023-05-01T10:58:13.667Z,40734.72
2023-05-01T10:59:13.822Z,31334.40
2023-05-01T11:00:14.084Z,28200.96
2023-05-01T11:01:13.136Z,34467.84
2023-05-01T11:02:13.195Z,50135.04
2023-05-01T11:03:13.488Z,50135.04
2023-05-01T11:04:13.425Z,25067.52
2023-05-01T11:05:13.806Z,34467.84
2023-05-01T11:06:14.141Z,21934.08
2023-05-01T11:07:13.323Z,21934.08
2023-05-01T11:08:13.355Z,23500.80
2023-05-01T11:09:13.441Z,20367.36
2023-05-01T11:10:13.775Z,18800.64
2023-05-01T11:11:14.081Z,18800.64
2023-05-01T11:12:13.138Z,18800.64
2023-05-01T11:13:13.291Z,17233.92
2023-05-01T11:14:13.356Z,15667.20
2023-05-01T11:15:13.387Z,17233.92
2023-05-01T11:16:13.761Z,18800.64
2023-05-01T11:17:13.871Z,21934.08
2023-05-01T11:18:13.853Z,25067.52
2023-05-01T11:19:12.846Z,23500.80
2023-05-01T11:20:13.943Z,47001.60
2023-05-01T11:21:13.190Z,20367.36
2023-05-01T11:22:13.163Z,17233.92
2023-05-01T11:23:19.311Z,15667.20
2023-05-01T11:24:13.457Z,14100.48
2023-05-01T11:25:15.857Z,15667.20
2023-05-01T11:26:14.087Z,15667.20
2023-05-01T11:27:13.302Z,15667.20
2023-05-01T11:28:13.369Z,15667.20
2023-05-01T11:29:13.362Z,17233.92
2023-05-01T11:30:13.352Z,17233.92
2023-05-01T11:31:13.544Z,17233.92
2023-05-01T11:32:13.933Z,17233.92
2023-05-01T11:33:13.408Z,17233.92
2023-05-01T11:34:13.358Z,18800.64
2023-05-01T11:35:13.329Z,18800.64
2023-05-01T11:36:13.244Z,20367.36
2023-05-01T11:37:13.419Z,21934.08
2023-05-01T11:38:13.470Z,21934.08
2023-05-01T11:39:13.627Z,23500.80
2023-05-01T11:40:13.620Z,23500.80
2023-05-01T11:41:13.685Z,25067.52
2023-05-01T11:42:13.634Z,25067.52
2023-05-01T11:43:13.807Z,25067.52
2023-05-01T11:44:14.068Z,25067.52
2023-05-01T11:45:13.355Z,25067.52
2023-05-01T11:46:13.385Z,25067.52
2023-05-01T11:47:13.731Z,25067.52
2023-05-01T11:48:13.076Z,50135.04
2023-05-01T11:49:13.411Z,34467.84
2023-05-01T11:50:13.411Z,37601.28
2023-05-01T11:51:13.424Z,25067.52
2023-05-01T11:52:13.498Z,23500.80
2023-05-01T11:53:13.580Z,21934.08
2023-05-01T11:54:15.557Z,21934.08
2023-05-01T11:55:13.252Z,21934.08
2023-05-01T11:56:25.387Z,21934.08
2023-05-01T11:57:13.905Z,21934.08
2023-05-01T11:58:12.943Z,21934.08
2023-05-01T11:59:22.925Z,23500.80
2023-05-01T12:00:13.104Z,25067.52
2023-05-01T12:01:13.138Z,34467.84
2023-05-01T12:02:13.248Z,31334.40
2023-05-01T12:03:13.849Z,25067.52
2023-05-01T12:04:13.750Z,25067.52
2023-05-01T12:05:13.763Z,28200.96
2023-05-01T12:06:13.903Z,25067.52
2023-05-01T12:07:13.001Z,23500.80
2023-05-01T12:08:13.323Z,21934.08
2023-05-01T12:09:13.466Z,23500.80
2023-05-01T12:10:13.596Z,21934.08
2023-05-01T12:11:13.799Z,20367.36
2023-05-01T12:12:13.915Z,21934.08
2023-05-01T12:13:12.929Z,20367.36
2023-05-01T12:14:13.278Z,20367.36
2023-05-01T12:15:13.505Z,20367.36
2023-05-01T12:16:13.508Z,18800.64
2023-05-01T12:17:15.068Z,18800.64
2023-05-01T12:18:13.163Z,18800.64
2023-05-01T12:19:13.501Z,18800.64